• Join FlightAware (Why Join?)
  • Login
  • US Flag 
01:11PM EDT


 

Airport Tracker/Info


-or-


 

Live Flight TrackerFlight Track Log ✈ AM217 ✈ 06-May-2012 ✈ YMEN / MEB - YGTH / GFF

Flight Track Log - Related Links

Times and Time Zones

All times are in EDT time to prevent confusion due to time zone crossing. See the AM217 flight status page for this flight to view local times or setup timezone preferences in your user account.

Time Position Orientation Groundspeed Altitude Reporting Facility
EDT Latitude Longitude Course Direction KTS MPH feet Rate Location/Type
11:24PM -37.7486 144.9061 157° South 142 163 1,000  Level Aus ATC (RADAR)
11:25PM -37.7756 144.9206 155° Southeast 159 183 2,300 1,740 Climbing Aus ATC (RADAR)
11:26PM -37.8194 144.9465 88° East 177 204 3,900 1,680 Climbing Aus ATC (RADAR)
11:27PM -37.8184 144.9931 27° Northeast 184 212 5,700 1,740 Climbing Aus ATC (RADAR)
11:27PM -37.7889 145.0121 27° Northeast 181 208 6,800 1,560 Climbing Aus ATC (RADAR)
11:28PM -37.7617 145.0294 25° Northeast 189 217 7,700 1,620 Climbing Aus ATC (RADAR)
11:29PM -37.7337 145.0457 26° Northeast 190 219 8,700 1,620 Climbing Aus ATC (RADAR)
11:29PM -37.7059 145.0630 26° Northeast 192 221 9,600 1,680 Climbing Aus ATC (RADAR)
11:30PM -37.6777 145.0805 26° Northeast 195 224 10,700 1,620 Climbing Aus ATC (RADAR)
11:31PM -37.6201 145.1161 26° Northeast 199 229 12,500 1,560 Climbing Aus ATC (RADAR)
11:32PM -37.5691 145.1474 26° Northeast 204 235 14,100 1,500 Climbing Aus ATC (RADAR)
11:33PM -37.5304 145.1711 26° Northeast 209 241 15,200 1,380 Climbing Aus ATC (RADAR)
11:33PM -37.4994 145.1900 26° Northeast 211 243 16,000 1,500 Climbing Aus ATC (RADAR)
11:34PM -37.4587 145.2150 26° Northeast 218 251 17,200 1,500 Climbing Aus ATC (RADAR)
11:35PM -37.4033 145.2494 26° Northeast 220 253 18,700 1,260 Climbing Aus ATC (RADAR)
11:36PM -37.3569 145.2777 26° Northeast 226 260 19,600 1,080 Climbing Aus ATC (RADAR)
11:37PM -37.2943 145.3158 26° Northeast 234 269 20,800 1,020 Climbing Aus ATC (RADAR)
11:38PM -37.2502 145.3425 26° Northeast 238 274 21,500 960 Climbing Aus ATC (RADAR)
11:38PM -37.2156 145.3634 26° Northeast 238 274 22,100 900 Climbing Aus ATC (RADAR)
11:39PM -37.1706 145.3909 41° Northeast 242 278 22,700 840 Climbing Aus ATC (RADAR)
11:40PM -37.1230 145.4423 41° Northeast 247 284 23,500 720 Climbing Aus ATC (RADAR)
11:41PM -37.0608 145.5093 41° Northeast 256 295 24,300 600 Climbing Aus ATC (RADAR)
11:42PM -37.0065 145.5691 41° Northeast 261 300 24,900 600 Climbing Aus ATC (RADAR)
11:43PM -36.9652 145.6145 41° Northeast 265 305 25,400 660 Climbing Aus ATC (RADAR)
11:43PM -36.9328 145.6504 41° Northeast 267 307 25,800 600 Climbing Aus ATC (RADAR)
11:44PM -36.9001 145.6860 41° Northeast 269 310 26,100 480 Climbing Aus ATC (RADAR)
11:44PM -36.8672 145.7221 44° Northeast 271 312 26,400 480 Climbing Aus ATC (RADAR)
11:45PM -36.8357 145.7606 53° Northeast 276 318 26,700 480 Climbing Aus ATC (RADAR)
11:46PM -36.7975 145.8249 52° Northeast 276 318 27,100 180 Climbing Aus ATC (RADAR)
11:47PM -36.7484 145.9030 52° Northeast 290 334 27,100  Level Aus ATC (RADAR)
11:48PM -36.7104 145.9629 52° Northeast 294 338 27,100  Level Aus ATC (RADAR)
11:48PM -36.6809 146.0101 51° Northeast 297 342 27,100  Level Aus ATC (RADAR)
11:49PM -36.6551 146.0499 52° Northeast 297 342 27,100  Level Aus ATC (RADAR)
11:49PM -36.6215 146.1039 51° Northeast 295 339 27,100  Level Aus ATC (RADAR)
11:50PM -36.5915 146.1506 51° Northeast 295 339 27,100  Level Aus ATC (RADAR)
11:51PM -36.5274 146.2504 51° Northeast 295 339 27,100  Level Aus ATC (RADAR)
11:52PM -36.4807 146.3233 51° Northeast 292 336 27,100  Level Aus ATC (RADAR)
11:53PM -36.4379 146.3893 52° Northeast 294 338 27,100  Level Aus ATC (RADAR)
11:54PM -36.4089 146.4358 51° Northeast 293 337 27,100  Level Aus ATC (RADAR)
11:54PM -36.3619 146.5082 51° Northeast 292 336 27,100  Level Aus ATC (RADAR)
11:55PM -36.3197 146.5740 51° Northeast 291 335 27,100  Level Aus ATC (RADAR)
11:57PM -36.2477 146.6852 51° Northeast 289 333 27,100  Level Aus ATC (RADAR)
11:58PM -36.2052 146.7507 50° Northeast 292 336 27,100  Level Aus ATC (RADAR)
11:58PM -36.1618 146.8154 53° Northeast 293 337 27,100  Level Aus ATC (RADAR)
11:59PM -36.1292 146.8690 51° Northeast 290 334 27,100  Level Aus ATC (RADAR)
12:00AM -36.0905 146.9277 54° Northeast 292 336 27,100  Level Aus ATC (RADAR)
12:02AM -36.0012 147.0777 55° Northeast 297 342 27,100  Level Aus ATC (RADAR)
12:03AM -35.9577 147.1545 54° Northeast 295 339 27,100  Level Aus ATC (RADAR)
12:03AM -35.9211 147.2162 55° Northeast 297 342 27,100  Level Aus ATC (RADAR)
12:04AM -35.8891 147.2717 54° Northeast 297 342 27,100  Level Aus ATC (RADAR)
12:05AM -35.8524 147.3340 54° Northeast 298 343 27,100  Level Aus ATC (RADAR)
12:06AM -35.7757 147.4650 54° Northeast 295 339 27,100  Level Aus ATC (RADAR)
12:07AM -35.7317 147.5399 54° Northeast 294 338 27,100  Level Aus ATC (RADAR)
12:08AM -35.7038 147.5877 54° Northeast 293 337 27,100  Level Aus ATC (RADAR)
12:09AM -35.6682 147.6489 54° Northeast 292 336 27,100  Level Aus ATC (RADAR)
12:09AM -35.6399 147.6961 54° Northeast 292 336 27,100  Level Aus ATC (RADAR)
12:10AM -35.5957 147.7705 54° Northeast 294 338 27,100  Level Aus ATC (RADAR)
12:11AM -35.5399 147.8649 54° Northeast 291 335 27,100  Level Aus ATC (RADAR)
12:12AM -35.5163 147.9054 54° Northeast 291 335 27,100  Level Aus ATC (RADAR)
12:13AM -35.4719 147.9793 54° Northeast 293 337 27,100  Level Aus ATC (RADAR)
12:13AM -35.4318 148.0471 53° Northeast 294 338 27,100  Level Aus ATC (RADAR)
12:14AM -35.4072 148.0872 54° Northeast 293 337 27,100  Level Aus ATC (RADAR)
12:15AM -35.3669 148.1552 53° Northeast 295 339 27,100  Level Aus ATC (RADAR)
12:16AM -35.3177 148.2366 54° Northeast 294 338 27,100  Level Aus ATC (RADAR)
12:17AM -35.2767 148.3052 54° Northeast 296 341 27,100  Level Aus ATC (RADAR)
12:18AM -35.2273 148.3871 53° Northeast 298 343 27,100  Level Aus ATC (RADAR)
12:18AM -35.1858 148.4555 54° Northeast 299 344 27,100  Level Aus ATC (RADAR)
12:19AM -35.1572 148.5033 53° Northeast 298 343 27,100  Level Aus ATC (RADAR)
12:20AM -35.1194 148.5645 54° Northeast 299 344 27,100  Level Aus ATC (RADAR)
12:21AM -35.0698 148.6468 53° Northeast 298 343 27,100  Level Aus ATC (RADAR)
12:22AM -35.0155 148.7360 53° Northeast 299 344 27,100  Level Aus ATC (RADAR)
12:23AM -34.9650 148.8186 53° Northeast 297 342 27,100  Level Aus ATC (RADAR)
12:24AM -34.9280 148.8789 53° Northeast 294 338 27,100  Level Aus ATC (RADAR)
12:24AM -34.8992 148.9256 53° Northeast 293 337 27,100  Level Aus ATC (RADAR)
12:25AM -34.8711 148.9716 53° Northeast 288 331 27,100  Level Aus ATC (RADAR)
12:25AM -34.8433 149.0166 54° Northeast 283 326 27,100  Level Aus ATC (RADAR)
12:26AM -34.8169 149.0602 54° Northeast 272 313 27,100  Level Aus ATC (RADAR)
12:27AM -34.7806 149.1204 53° Northeast 260 299 27,100  Level Aus ATC (RADAR)
12:28AM -34.7381 149.1899 54° Northeast 252 290 27,100  Level Aus ATC (RADAR)
12:29AM -34.7070 149.2413 54° Northeast 250 288 27,100  Level Aus ATC (RADAR)
12:29AM -34.6791 149.2875 54° Northeast 251 289 27,100  Level Aus ATC (RADAR)
12:30AM -34.6480 149.3391 53° Northeast 251 289 27,100  Level Aus ATC (RADAR)
12:31AM -34.6063 149.4075 54° Northeast 249 287 27,100  Level Aus ATC (RADAR)
12:32AM -34.5549 149.4922 53° Northeast 245 282 27,100  Level Aus ATC (RADAR)
12:33AM -34.5134 149.5596 54° Northeast 247 284 27,100  Level Aus ATC (RADAR)
12:34AM -34.4827 149.6107 53° Northeast 247 284 27,100  Level Aus ATC (RADAR)
12:35AM -34.4581 149.6499 54° Northeast 247 284 27,100  Level Aus ATC (RADAR)
12:35AM -34.4272 149.7011 54° Northeast 247 284 27,100 -420 Level Aus ATC (RADAR)
12:37AM -34.3731 149.7902 54° Northeast 240 276 26,300 -780 Descending Aus ATC (RADAR)
12:37AM -34.3430 149.8403 53° Northeast 239 275 25,500 -1,020 Descending Aus ATC (RADAR)
12:38AM -34.3196 149.8780 54° Northeast 237 273 25,000 -1,080 Descending Aus ATC (RADAR)
12:39AM -34.2899 149.9269 54° Northeast 237 273 24,100 -1,740 Descending Aus ATC (RADAR)
12:39AM -34.2635 149.9715 52° Northeast 273 314 22,700 -2,100 Descending Aus ATC (RADAR)
12:40AM -34.2226 150.0354 53° Northeast 312 359 21,300 -1,800 Descending Aus ATC (RADAR)
12:41AM -34.1961 150.0775 58° Northeast 308 354 20,500 -1,800 Descending Aus ATC (RADAR)
12:41AM -34.1698 150.1292 79° East 302 348 19,400 -2,040 Descending Aus ATC (RADAR)
12:42AM -34.1570 150.2053 75° East 293 337 17,800 -2,100 Descending Aus ATC (RADAR)
12:43AM -34.1357 150.3024 76° East 283 326 15,800 -2,220 Descending Aus ATC (RADAR)
12:44AM -34.1210 150.3716 75° East 275 316 14,000 -1,920 Descending Aus ATC (RADAR)
12:44AM -34.1091 150.4248 75° East 270 311 13,300 -1,500 Descending Aus ATC (RADAR)
12:45AM -34.0942 150.4925 76° East 269 310 12,100 -1,380 Descending Aus ATC (RADAR)
12:46AM -34.0751 150.5817 76° East 264 304 10,900 -1,200 Descending Aus ATC (RADAR)
12:47AM -34.0520 150.6896 75° East 255 293 9,400 -1,080 Descending Aus ATC (RADAR)
12:48AM -34.0357 150.7643 75° East 243 280 8,600 -1,080 Descending Aus ATC (RADAR)
12:49AM -34.0212 150.8308 75° East 237 273 7,600 -1,140 Descending Aus ATC (RADAR)
12:49AM -34.0104 150.8788 75° East 245 282 7,000 -1,080 Descending Aus ATC (RADAR)
12:50AM -33.9983 150.9326 85° East 241 277 6,300 -900 Descending Aus ATC (RADAR)
12:51AM -33.9953 150.9732 140° Southeast 242 278 6,000 -300 Descending Aus ATC (RADAR)
12:51AM -34.0221 151.0005 147° Southeast 217 250 6,000 -600 Level Aus ATC (RADAR)
12:52AM -34.0821 151.0477 148° Southeast 219 252 5,000 -960 Descending Aus ATC (RADAR)
12:53AM -34.1302 151.0837 134° Southeast 220 253 4,100 -960 Descending Aus ATC (RADAR)
12:54AM -34.1638 151.1264 93° East 214 246 3,400 -960 Descending Aus ATC (RADAR)
12:55AM -34.1657 151.1672 70° East 199 229 2,800 -960 Descending Aus ATC (RADAR)
12:56AM -34.1523 151.2128 North 191 220 2,100 -480 Descending Aus ATC (RADAR)
12:56AM -34.1085 151.2192 347° North 169 194 2,000 -120 Descending Aus ATC (RADAR)
12:58AM -34.0604 151.2058 348° North 160 184 1,900 -420 Descending Aus ATC (RADAR)
12:58AM -34.0273 151.1975 348° North 144 166 1,300 -660 Descending Aus ATC (RADAR)
12:59AM -33.9992 151.1902 347° North 139 160 900 -660 Descending Aus ATC (RADAR)
01:00AM -33.9619 151.1801 347° North 117 135 100 -780 Descending Aus ATC (RADAR)